Pauls Valley, OK

6:21 AM CDT on May 29, 2017 (GMT -0500)
Pauls Valley Municipal

Weather History for KPVJ - October, 2012

Change the Weather History Date:

Saturday, October 6, 2012

  Actual Average (KADH) Record (KADH)
Temperature  
Mean Temperature 46 °F -  
Max Temperature 48 °F 78 °F 97 °F (1937)
Min Temperature 44 °F 53 °F 36 °F (1976)
Degree Days  
Heating Degree Days 19    
Moisture  
Dew Point 34 °F    
Average Humidity 63    
Maximum Humidity 76    
Minimum Humidity 50    
Precipitation  
Precipitation 0.00 in - - ()
Sea Level Pressure  
Sea Level Pressure 30.25 in    
Wind  
Wind Speed 12 mph (NE)    
Max Wind Speed 17 mph    
Max Gust Speed 23 mph    
Visibility 10 miles    
Events      
Averages and records for this station are not official NWS values.
T = Trace of Precipitation, MM = Missing Value Source: NWS Daily Summary

Daily Weather History Graph

Daily Weather History Graph

Search for Another Location

Airport or City:

Trip Planner

Search our weather history database for the weather conditions in past years. The results will help you decide how hot, cold, wet, or windy it might be!

Date:

Astronomy

Oct. 06, 2012 Rise Set
Actual Time 7:27 AM CDT 7:05 PM CDT
Civil Twilight 7:02 AM CDT 7:30 PM CDT
Nautical Twilight 6:33 AM CDT 7:59 PM CDT
Astronomical Twilight 6:04 AM CDT 8:28 PM CDT
Moon 11:32 PM CDT (10/6) 1:12 PM CDT (10/6)
Length of Visible Light 12h 27m
Length of Day
11h 37m
Waning Gibbous, 65% of the Moon is Illuminated
Oct 6
Waning Gibbous
Oct 8
Last Quarter
Oct 15
New
Oct 21
First Quarter
Oct 29
Full

Hourly Weather History & Observations

Time (CDT) Temp. Windchill Dew Point Humidity Pressure Visibility Wind Dir Wind Speed Gust Speed Precip Events Conditions
12:15 AM 48.2 °F - 39.2 °F 71% 30.19 in 10.0 mi NNE 15.0 mph 21.9 mph N/A   Unknown
12:35 AM 48.2 °F - 37.4 °F 66% 30.19 in 10.0 mi North 15.0 mph 23.0 mph N/A   Unknown
12:55 AM 46.4 °F 39.5 °F 37.4 °F 71% 30.19 in 10.0 mi North 17.3 mph 23.0 mph N/A   Unknown
1:15 AM 46.4 °F 40.7 °F 37.4 °F 71% 30.19 in 10.0 mi NNE 12.7 mph 23.0 mph N/A   Unknown
1:55 AM 44.6 °F 38.8 °F 37.4 °F 76% 30.21 in 10.0 mi NNE 11.5 mph 20.7 mph N/A   Unknown
2:15 AM 44.6 °F 39.2 °F 35.6 °F 71% 30.22 in 10.0 mi NE 10.4 mph 19.6 mph N/A   Unknown
2:35 AM 44.6 °F 40.2 °F 35.6 °F 71% 30.22 in 10.0 mi NE 8.1 mph - N/A   Unknown
2:55 AM 44.6 °F 39.7 °F 35.6 °F 71% 30.22 in 10.0 mi NE 9.2 mph - N/A   Unknown
3:15 AM 44.6 °F 39.7 °F 35.6 °F 71% 30.22 in 10.0 mi NNE 9.2 mph 16.1 mph N/A   Unknown
3:35 AM 44.6 °F 39.2 °F 35.6 °F 71% 30.23 in 10.0 mi NNE 10.4 mph - N/A   Unknown
3:55 AM 44.6 °F 38.8 °F 35.6 °F 71% 30.23 in 10.0 mi NNE 11.5 mph 18.4 mph N/A   Unknown
4:35 AM 44.6 °F 38.8 °F 35.6 °F 71% 30.23 in 10.0 mi NNE 11.5 mph 17.3 mph N/A   Unknown
4:55 AM 44.6 °F 38.1 °F 35.6 °F 71% 30.23 in 10.0 mi NNE 13.8 mph 21.9 mph N/A   Unknown
5:15 AM 44.6 °F 37.8 °F 35.6 °F 71% 30.23 in 10.0 mi NE 15.0 mph 19.6 mph N/A   Unknown
5:35 AM 44.6 °F 38.4 °F 35.6 °F 71% 30.23 in 10.0 mi NE 12.7 mph 20.7 mph N/A   Unknown
5:55 AM 44.6 °F 38.1 °F 35.6 °F 71% 30.23 in 10.0 mi NE 13.8 mph - N/A   Unknown
6:15 AM 44.6 °F 39.2 °F 35.6 °F 71% 30.23 in 10.0 mi NNE 10.4 mph - N/A   Unknown
6:35 AM 44.6 °F 39.7 °F 35.6 °F 71% 30.23 in 10.0 mi NE 9.2 mph 18.4 mph N/A   Unknown
6:55 AM 44.6 °F 38.4 °F 35.6 °F 71% 30.24 in 10.0 mi NE 12.7 mph - N/A   Unknown
7:15 AM 44.6 °F 39.2 °F 35.6 °F 71% 30.24 in 10.0 mi NE 10.4 mph - N/A   Unknown
7:35 AM 44.6 °F 40.7 °F 35.6 °F 71% 30.23 in 10.0 mi NE 6.9 mph - N/A   Unknown
7:55 AM 44.6 °F 39.7 °F 35.6 °F 71% 30.23 in 10.0 mi NE 9.2 mph - N/A   Unknown
8:15 AM 44.6 °F 39.7 °F 33.8 °F 66% 30.23 in 10.0 mi NE 9.2 mph - N/A   Unknown
8:35 AM 44.6 °F 39.2 °F 33.8 °F 66% 30.24 in 10.0 mi NE 10.4 mph 17.3 mph N/A   Unknown
8:55 AM 44.6 °F 39.2 °F 33.8 °F 66% 30.25 in 10.0 mi NE 10.4 mph 18.4 mph N/A   Unknown
9:15 AM 44.6 °F 39.2 °F 33.8 °F 66% 30.25 in 10.0 mi NE 10.4 mph 18.4 mph N/A   Unknown
9:35 AM 44.6 °F 39.2 °F 33.8 °F 66% 30.26 in 10.0 mi NE 10.4 mph 18.4 mph N/A   Unknown
9:55 AM 44.6 °F 39.7 °F 33.8 °F 66% 30.26 in 10.0 mi NE 9.2 mph 19.6 mph N/A   Unknown
10:15 AM 44.6 °F 39.2 °F 35.6 °F 71% 30.27 in 10.0 mi NE 10.4 mph - N/A   Unknown
10:35 AM 46.4 °F 42.9 °F 35.6 °F 66% 30.27 in 10.0 mi NNE 6.9 mph 19.6 mph N/A   Unknown
10:55 AM 46.4 °F 41.5 °F 33.8 °F 62% 30.27 in 10.0 mi NNE 10.4 mph 18.4 mph N/A   Unknown
11:15 AM 46.4 °F 41.1 °F 33.8 °F 62% 30.26 in 10.0 mi NNE 11.5 mph 16.1 mph N/A   Unknown
11:35 AM 46.4 °F 41.9 °F 32.0 °F 57% 30.26 in 10.0 mi NE 9.2 mph 16.1 mph N/A   Unknown
11:55 AM 46.4 °F 41.5 °F 32.0 °F 57% 30.26 in 10.0 mi NE 10.4 mph 17.3 mph N/A   Unknown
12:15 PM 46.4 °F 41.1 °F 32.0 °F 57% 30.26 in 10.0 mi NNE 11.5 mph 16.1 mph N/A   Unknown
12:35 PM 46.4 °F 41.1 °F 32.0 °F 57% 30.25 in 10.0 mi NE 11.5 mph - N/A   Unknown
12:55 PM 46.4 °F 40.7 °F 32.0 °F 57% 30.25 in 10.0 mi NE 12.7 mph 18.4 mph N/A   Unknown
1:15 PM 46.4 °F 40.7 °F 32.0 °F 57% 30.25 in 10.0 mi NNE 12.7 mph 17.3 mph N/A   Unknown
1:35 PM 46.4 °F 40.4 °F 32.0 °F 57% 30.25 in 10.0 mi NNE 13.8 mph 19.6 mph N/A   Unknown
1:55 PM 46.4 °F 41.1 °F 32.0 °F 57% 30.24 in 10.0 mi NNE 11.5 mph 18.4 mph N/A   Unknown
2:15 PM 46.4 °F 41.5 °F 32.0 °F 57% 30.23 in 10.0 mi NE 10.4 mph 17.3 mph N/A   Unknown
2:35 PM 46.4 °F 41.5 °F 32.0 °F 57% 30.23 in 10.0 mi NE 10.4 mph - N/A   Unknown
2:55 PM 46.4 °F 41.5 °F 32.0 °F 57% 30.22 in 10.0 mi NE 10.4 mph 17.3 mph N/A   Unknown
3:15 PM 48.2 °F - 32.0 °F 54% 30.23 in 10.0 mi NE 10.4 mph - N/A   Unknown
3:35 PM 48.2 °F - 32.0 °F 54% 30.22 in 10.0 mi NE 15.0 mph 19.6 mph N/A   Unknown
3:55 PM 48.2 °F - 30.2 °F 50% 30.22 in 10.0 mi NE 10.4 mph 16.1 mph N/A   Unknown
4:15 PM 48.2 °F - 32.0 °F 54% 30.22 in 10.0 mi NNE 12.7 mph 17.3 mph N/A   Unknown
4:35 PM 48.2 °F - 30.2 °F 50% 30.23 in 10.0 mi NE 12.7 mph 20.7 mph N/A   Unknown
4:55 PM 48.2 °F - 32.0 °F 54% 30.22 in 10.0 mi NE 13.8 mph - N/A   Unknown
5:15 PM 48.2 °F - 32.0 °F 54% 30.22 in 10.0 mi NE 10.4 mph 19.6 mph N/A   Unknown
5:35 PM 46.4 °F 40.7 °F 32.0 °F 57% 30.23 in 10.0 mi NE 12.7 mph 17.3 mph N/A   Unknown
6:15 PM 46.4 °F 41.9 °F 32.0 °F 57% 30.24 in 10.0 mi NNE 9.2 mph - N/A   Unknown
6:35 PM 46.4 °F 41.1 °F 32.0 °F 57% 30.25 in 10.0 mi NE 11.5 mph 17.3 mph N/A   Unknown
6:55 PM 46.4 °F 41.5 °F 32.0 °F 57% 30.26 in 10.0 mi NNE 10.4 mph - N/A   Unknown
7:15 PM 46.4 °F 41.5 °F 32.0 °F 57% 30.26 in 10.0 mi NE 10.4 mph 19.6 mph N/A   Unknown
7:35 PM 46.4 °F 40.7 °F 32.0 °F 57% 30.27 in 10.0 mi NE 12.7 mph 18.4 mph N/A   Unknown
7:55 PM 46.4 °F 40.7 °F 32.0 °F 57% 30.27 in 10.0 mi NE 12.7 mph 16.1 mph N/A   Unknown
8:15 PM 46.4 °F 42.9 °F 32.0 °F 57% 30.27 in 10.0 mi NE 6.9 mph 16.1 mph N/A   Unknown
8:35 PM 46.4 °F 41.5 °F 32.0 °F 57% 30.28 in 10.0 mi NE 10.4 mph 17.3 mph N/A   Unknown
8:55 PM 46.4 °F 42.4 °F 33.8 °F 62% 30.29 in 10.0 mi NNE 8.1 mph - N/A   Unknown
9:15 PM 46.4 °F 41.9 °F 33.8 °F 62% 30.29 in 10.0 mi NNE 9.2 mph - N/A   Unknown
9:35 PM 46.4 °F 42.4 °F 33.8 °F 62% 30.30 in 10.0 mi NNE 8.1 mph - N/A   Unknown
9:55 PM 44.6 °F 40.7 °F 33.8 °F 66% 30.31 in 10.0 mi NNE 6.9 mph - N/A   Unknown
10:15 PM 44.6 °F 39.7 °F 33.8 °F 66% 30.31 in 10.0 mi NNE 9.2 mph - N/A   Unknown
10:35 PM 44.6 °F 39.7 °F 33.8 °F 66% 30.32 in 10.0 mi NNE 9.2 mph - N/A   Unknown
10:55 PM 44.6 °F 41.4 °F 32.0 °F 61% 30.32 in 10.0 mi NE 5.8 mph - N/A   Unknown
11:15 PM 44.6 °F 41.4 °F 32.0 °F 61% 30.32 in 10.0 mi NNE 5.8 mph - N/A   Unknown
11:35 PM 44.6 °F 42.2 °F 32.0 °F 61% 30.32 in 10.0 mi NNE 4.6 mph - N/A   Unknown
11:55 PM 44.6 °F 41.4 °F 32.0 °F 61% 30.33 in 10.0 mi NNE 5.8 mph - N/A   Unknown